sensor_id;sensor_type;location;lat;lon;timestamp;temperature;humidity
40670;DHT22;26355;45.528;9.234;2023-08-06T00:00:24;24.80;99.90
40670;DHT22;26355;45.528;9.234;2023-08-06T00:02:49;24.80;99.90
40670;DHT22;26355;45.528;9.234;2023-08-06T00:05:15;24.70;99.90
40670;DHT22;26355;45.528;9.234;2023-08-06T00:07:44;24.70;99.90
40670;DHT22;26355;45.528;9.234;2023-08-06T00:10:10;24.70;99.90
40670;DHT22;26355;45.528;9.234;2023-08-06T00:12:36;24.60;99.90
40670;DHT22;26355;45.528;9.234;2023-08-06T00:15:02;24.70;99.90
40670;DHT22;26355;45.528;9.234;2023-08-06T00:17:27;24.70;99.90
40670;DHT22;26355;45.528;9.234;2023-08-06T00:19:53;24.60;99.90
40670;DHT22;26355;45.528;9.234;2023-08-06T00:22:18;24.70;99.90
40670;DHT22;26355;45.528;9.234;2023-08-06T00:24:44;24.70;99.90
40670;DHT22;26355;45.528;9.234;2023-08-06T00:27:09;24.70;99.90
40670;DHT22;26355;45.528;9.234;2023-08-06T00:29:35;24.70;99.90
40670;DHT22;26355;45.528;9.234;2023-08-06T00:32:00;24.70;99.90
40670;DHT22;26355;45.528;9.234;2023-08-06T00:34:26;24.60;99.90
40670;DHT22;26355;45.528;9.234;2023-08-06T00:36:52;24.50;99.90
40670;DHT22;26355;45.528;9.234;2023-08-06T00:39:19;24.60;99.90
40670;DHT22;26355;45.528;9.234;2023-08-06T00:41:44;24.60;99.90
40670;DHT22;26355;45.528;9.234;2023-08-06T00:44:10;24.60;99.90
40670;DHT22;26355;45.528;9.234;2023-08-06T00:46:35;24.60;99.90
40670;DHT22;26355;45.528;9.234;2023-08-06T00:49:01;24.60;99.90
40670;DHT22;26355;45.528;9.234;2023-08-06T00:51:27;24.50;99.90
40670;DHT22;26355;45.528;9.234;2023-08-06T00:53:53;24.40;99.90
40670;DHT22;26355;45.528;9.234;2023-08-06T00:56:19;24.50;99.90
40670;DHT22;26355;45.528;9.234;2023-08-06T00:58:45;24.40;99.90
40670;DHT22;26355;45.528;9.234;2023-08-06T01:01:11;24.40;99.90
40670;DHT22;26355;45.528;9.234;2023-08-06T01:03:37;24.40;99.90
40670;DHT22;26355;45.528;9.234;2023-08-06T01:06:03;24.40;99.90
40670;DHT22;26355;45.528;9.234;2023-08-06T01:08:44;24.40;99.90
40670;DHT22;26355;45.528;9.234;2023-08-06T01:11:44;24.40;99.90
40670;DHT22;26355;45.528;9.234;2023-08-06T01:16:58;24.40;99.90
40670;DHT22;26355;45.528;9.234;2023-08-06T01:19:24;24.30;99.90
40670;DHT22;26355;45.528;9.234;2023-08-06T01:21:50;24.30;99.90
40670;DHT22;26355;45.528;9.234;2023-08-06T01:24:16;24.30;99.90
40670;DHT22;26355;45.528;9.234;2023-08-06T01:29:56;24.30;99.90
40670;DHT22;26355;45.528;9.234;2023-08-06T01:32:22;24.30;99.90
40670;DHT22;26355;45.528;9.234;2023-08-06T01:34:50;24.30;99.90
40670;DHT22;26355;45.528;9.234;2023-08-06T01:37:16;24.30;99.90
40670;DHT22;26355;45.528;9.234;2023-08-06T01:39:45;24.30;99.90
40670;DHT22;26355;45.528;9.234;2023-08-06T01:42:10;24.40;99.90
40670;DHT22;26355;45.528;9.234;2023-08-06T01:44:36;24.40;99.90
40670;DHT22;26355;45.528;9.234;2023-08-06T01:47:32;24.40;99.90
40670;DHT22;26355;45.528;9.234;2023-08-06T01:53:49;24.40;99.90
40670;DHT22;26355;45.528;9.234;2023-08-06T02:04:18;24.50;99.90
40670;DHT22;26355;45.528;9.234;2023-08-06T02:07:23;24.40;99.90
40670;DHT22;26355;45.528;9.234;2023-08-06T02:09:49;24.50;99.90
40670;DHT22;26355;45.528;9.234;2023-08-06T02:12:14;24.50;99.90
40670;DHT22;26355;45.528;9.234;2023-08-06T02:14:40;24.50;99.90
40670;DHT22;26355;45.528;9.234;2023-08-06T02:17:05;24.50;99.90
40670;DHT22;26355;45.528;9.234;2023-08-06T02:19:31;24.50;99.90
40670;DHT22;26355;45.528;9.234;2023-08-06T02:21:57;24.50;99.90
40670;DHT22;26355;45.528;9.234;2023-08-06T02:24:22;24.40;99.90
40670;DHT22;26355;45.528;9.234;2023-08-06T02:26:48;24.50;99.90
40670;DHT22;26355;45.528;9.234;2023-08-06T02:29:17;24.30;99.90
40670;DHT22;26355;45.528;9.234;2023-08-06T02:31:42;24.30;99.90
40670;DHT22;26355;45.528;9.234;2023-08-06T02:34:08;24.40;99.90
40670;DHT22;26355;45.528;9.234;2023-08-06T02:36:33;24.40;99.90
40670;DHT22;26355;45.528;9.234;2023-08-06T02:38:59;24.40;99.90
40670;DHT22;26355;45.528;9.234;2023-08-06T02:41:24;24.30;99.90
40670;DHT22;26355;45.528;9.234;2023-08-06T02:43:50;24.30;99.90
40670;DHT22;26355;45.528;9.234;2023-08-06T02:46:15;24.20;99.90
40670;DHT22;26355;45.528;9.234;2023-08-06T02:48:41;24.10;99.90
40670;DHT22;26355;45.528;9.234;2023-08-06T02:51:06;24.20;99.90
40670;DHT22;26355;45.528;9.234;2023-08-06T02:53:32;24.20;99.90
40670;DHT22;26355;45.528;9.234;2023-08-06T02:55:57;24.30;99.90
40670;DHT22;26355;45.528;9.234;2023-08-06T02:58:24;24.30;99.90
40670;DHT22;26355;45.528;9.234;2023-08-06T03:01:04;24.20;99.90
40670;DHT22;26355;45.528;9.234;2023-08-06T03:03:33;24.10;99.90
40670;DHT22;26355;45.528;9.234;2023-08-06T03:06:00;24.00;99.90
40670;DHT22;26355;45.528;9.234;2023-08-06T03:08:26;23.90;99.90
40670;DHT22;26355;45.528;9.234;2023-08-06T03:10:51;23.90;99.90
40670;DHT22;26355;45.528;9.234;2023-08-06T03:13:18;23.80;99.90
40670;DHT22;26355;45.528;9.234;2023-08-06T03:15:51;23.80;99.90
40670;DHT22;26355;45.528;9.234;2023-08-06T03:18:17;23.80;99.90
40670;DHT22;26355;45.528;9.234;2023-08-06T03:20:42;23.80;99.90
40670;DHT22;26355;45.528;9.234;2023-08-06T03:23:08;23.80;99.90
40670;DHT22;26355;45.528;9.234;2023-08-06T03:25:35;23.80;99.90
40670;DHT22;26355;45.528;9.234;2023-08-06T03:28:02;23.80;99.90
40670;DHT22;26355;45.528;9.234;2023-08-06T03:30:27;23.80;99.90
40670;DHT22;26355;45.528;9.234;2023-08-06T03:32:53;23.80;99.90
40670;DHT22;26355;45.528;9.234;2023-08-06T03:35:18;23.80;99.90
40670;DHT22;26355;45.528;9.234;2023-08-06T03:37:44;23.80;99.90
40670;DHT22;26355;45.528;9.234;2023-08-06T03:40:10;23.80;99.90
40670;DHT22;26355;45.528;9.234;2023-08-06T03:42:35;23.70;99.90
40670;DHT22;26355;45.528;9.234;2023-08-06T03:45:01;23.70;99.90
40670;DHT22;26355;45.528;9.234;2023-08-06T03:47:27;23.70;99.90
40670;DHT22;26355;45.528;9.234;2023-08-06T03:49:52;23.70;99.90
40670;DHT22;26355;45.528;9.234;2023-08-06T03:52:18;23.70;99.90
40670;DHT22;26355;45.528;9.234;2023-08-06T03:54:43;23.70;99.90
40670;DHT22;26355;45.528;9.234;2023-08-06T03:57:09;23.70;99.90
40670;DHT22;26355;45.528;9.234;2023-08-06T03:59:35;23.60;99.90
40670;DHT22;26355;45.528;9.234;2023-08-06T04:02:01;23.60;99.90
40670;DHT22;26355;45.528;9.234;2023-08-06T04:04:27;23.60;99.90
40670;DHT22;26355;45.528;9.234;2023-08-06T04:06:52;23.60;99.90
40670;DHT22;26355;45.528;9.234;2023-08-06T04:09:18;23.60;99.90
40670;DHT22;26355;45.528;9.234;2023-08-06T04:11:43;23.60;99.90
40670;DHT22;26355;45.528;9.234;2023-08-06T04:14:09;23.60;99.90
40670;DHT22;26355;45.528;9.234;2023-08-06T04:16:34;23.60;99.90
40670;DHT22;26355;45.528;9.234;2023-08-06T04:19:00;23.60;99.90
40670;DHT22;26355;45.528;9.234;2023-08-06T04:21:25;23.60;99.90
40670;DHT22;26355;45.528;9.234;2023-08-06T04:23:51;23.60;99.90
40670;DHT22;26355;45.528;9.234;2023-08-06T04:26:17;23.60;99.90
40670;DHT22;26355;45.528;9.234;2023-08-06T04:28:42;23.60;99.90
40670;DHT22;26355;45.528;9.234;2023-08-06T04:31:08;23.60;99.90
40670;DHT22;26355;45.528;9.234;2023-08-06T04:33:33;23.60;99.90
40670;DHT22;26355;45.528;9.234;2023-08-06T04:35:59;23.50;99.90
40670;DHT22;26355;45.528;9.234;2023-08-06T04:38:25;23.50;99.90
40670;DHT22;26355;45.528;9.234;2023-08-06T04:40:51;23.40;99.90
40670;DHT22;26355;45.528;9.234;2023-08-06T04:43:17;23.50;99.90
40670;DHT22;26355;45.528;9.234;2023-08-06T04:45:46;23.50;99.90
40670;DHT22;26355;45.528;9.234;2023-08-06T04:48:12;23.50;99.90
40670;DHT22;26355;45.528;9.234;2023-08-06T04:50:38;23.50;99.90
40670;DHT22;26355;45.528;9.234;2023-08-06T04:53:04;23.40;99.90
40670;DHT22;26355;45.528;9.234;2023-08-06T04:55:30;23.50;99.90
40670;DHT22;26355;45.528;9.234;2023-08-06T04:57:55;23.40;99.90
40670;DHT22;26355;45.528;9.234;2023-08-06T05:00:21;23.40;99.90
40670;DHT22;26355;45.528;9.234;2023-08-06T05:02:47;23.40;99.90
40670;DHT22;26355;45.528;9.234;2023-08-06T05:05:12;23.40;99.90
40670;DHT22;26355;45.528;9.234;2023-08-06T05:07:38;23.40;99.90
40670;DHT22;26355;45.528;9.234;2023-08-06T05:10:03;23.40;99.90
40670;DHT22;26355;45.528;9.234;2023-08-06T05:12:29;23.40;99.90
40670;DHT22;26355;45.528;9.234;2023-08-06T05:14:55;23.50;99.90
40670;DHT22;26355;45.528;9.234;2023-08-06T05:17:20;23.50;99.90
40670;DHT22;26355;45.528;9.234;2023-08-06T05:19:48;23.50;99.90
40670;DHT22;26355;45.528;9.234;2023-08-06T05:22:13;23.40;99.90
40670;DHT22;26355;45.528;9.234;2023-08-06T05:24:39;23.50;99.90
40670;DHT22;26355;45.528;9.234;2023-08-06T05:27:05;23.50;99.90
40670;DHT22;26355;45.528;9.234;2023-08-06T05:29:30;23.50;99.90
40670;DHT22;26355;45.528;9.234;2023-08-06T05:31:56;23.40;99.90
40670;DHT22;26355;45.528;9.234;2023-08-06T05:34:21;23.60;99.90
40670;DHT22;26355;45.528;9.234;2023-08-06T05:36:47;23.60;99.90
40670;DHT22;26355;45.528;9.234;2023-08-06T05:39:12;23.60;99.90
40670;DHT22;26355;45.528;9.234;2023-08-06T05:41:38;23.60;99.90
40670;DHT22;26355;45.528;9.234;2023-08-06T05:44:04;23.70;99.90
40670;DHT22;26355;45.528;9.234;2023-08-06T05:46:29;23.80;99.90
40670;DHT22;26355;45.528;9.234;2023-08-06T05:48:55;23.80;99.90
40670;DHT22;26355;45.528;9.234;2023-08-06T05:51:20;23.70;99.90
40670;DHT22;26355;45.528;9.234;2023-08-06T05:53:46;23.80;99.90
40670;DHT22;26355;45.528;9.234;2023-08-06T05:56:12;23.80;99.90
40670;DHT22;26355;45.528;9.234;2023-08-06T05:58:38;23.80;99.90
40670;DHT22;26355;45.528;9.234;2023-08-06T06:01:03;23.90;99.90
40670;DHT22;26355;45.528;9.234;2023-08-06T06:03:29;23.90;99.90
40670;DHT22;26355;45.528;9.234;2023-08-06T06:05:54;23.90;99.90
40670;DHT22;26355;45.528;9.234;2023-08-06T06:08:20;23.90;99.90
40670;DHT22;26355;45.528;9.234;2023-08-06T06:10:45;24.00;99.90
40670;DHT22;26355;45.528;9.234;2023-08-06T06:13:11;24.00;99.90
40670;DHT22;26355;45.528;9.234;2023-08-06T06:15:36;24.00;99.90
40670;DHT22;26355;45.528;9.234;2023-08-06T06:18:03;24.00;99.90
40670;DHT22;26355;45.528;9.234;2023-08-06T06:20:28;24.10;99.90
40670;DHT22;26355;45.528;9.234;2023-08-06T06:22:54;24.20;99.90
40670;DHT22;26355;45.528;9.234;2023-08-06T06:25:20;24.30;99.90
40670;DHT22;26355;45.528;9.234;2023-08-06T06:27:45;24.30;99.90
40670;DHT22;26355;45.528;9.234;2023-08-06T06:30:11;24.50;99.90
40670;DHT22;26355;45.528;9.234;2023-08-06T06:32:37;24.70;99.90
40670;DHT22;26355;45.528;9.234;2023-08-06T06:35:03;25.00;99.90
40670;DHT22;26355;45.528;9.234;2023-08-06T06:37:28;25.30;99.90
40670;DHT22;26355;45.528;9.234;2023-08-06T06:39:54;25.60;99.90
40670;DHT22;26355;45.528;9.234;2023-08-06T06:42:19;25.90;99.90
40670;DHT22;26355;45.528;9.234;2023-08-06T06:44:45;26.20;99.60
40670;DHT22;26355;45.528;9.234;2023-08-06T06:47:11;26.50;99.10
40670;DHT22;26355;45.528;9.234;2023-08-06T06:49:37;26.70;98.90
40670;DHT22;26355;45.528;9.234;2023-08-06T06:52:02;26.80;98.50
40670;DHT22;26355;45.528;9.234;2023-08-06T06:54:28;27.00;98.30
40670;DHT22;26355;45.528;9.234;2023-08-06T06:56:53;27.20;98.00
40670;DHT22;26355;45.528;9.234;2023-08-06T06:59:19;27.30;97.70
40670;DHT22;26355;45.528;9.234;2023-08-06T07:01:44;27.40;97.50
40670;DHT22;26355;45.528;9.234;2023-08-06T07:04:10;27.50;97.30
40670;DHT22;26355;45.528;9.234;2023-08-06T07:06:36;27.50;97.20
40670;DHT22;26355;45.528;9.234;2023-08-06T07:09:01;27.40;96.80
40670;DHT22;26355;45.528;9.234;2023-08-06T07:11:27;27.40;96.70
40670;DHT22;26355;45.528;9.234;2023-08-06T07:13:58;27.50;96.50
40670;DHT22;26355;45.528;9.234;2023-08-06T07:16:25;27.60;95.90
40670;DHT22;26355;45.528;9.234;2023-08-06T07:18:52;27.70;96.20
40670;DHT22;26355;45.528;9.234;2023-08-06T07:21:18;27.70;96.00
40670;DHT22;26355;45.528;9.234;2023-08-06T07:23:43;27.80;96.30
40670;DHT22;26355;45.528;9.234;2023-08-06T07:26:09;27.90;96.00
40670;DHT22;26355;45.528;9.234;2023-08-06T07:28:35;28.00;95.60
40670;DHT22;26355;45.528;9.234;2023-08-06T07:31:03;28.00;95.50
40670;DHT22;26355;45.528;9.234;2023-08-06T07:33:28;28.10;95.10
40670;DHT22;26355;45.528;9.234;2023-08-06T07:35:54;28.20;94.80
40670;DHT22;26355;45.528;9.234;2023-08-06T07:38:20;28.20;94.70
40670;DHT22;26355;45.528;9.234;2023-08-06T07:40:46;28.20;94.40
40670;DHT22;26355;45.528;9.234;2023-08-06T07:43:11;28.20;94.20
40670;DHT22;26355;45.528;9.234;2023-08-06T07:45:37;28.30;94.00
40670;DHT22;26355;45.528;9.234;2023-08-06T07:48:03;28.30;94.00
40670;DHT22;26355;45.528;9.234;2023-08-06T07:50:29;28.40;93.70
40670;DHT22;26355;45.528;9.234;2023-08-06T07:52:54;28.40;93.50
40670;DHT22;26355;45.528;9.234;2023-08-06T07:55:20;28.30;93.30
40670;DHT22;26355;45.528;9.234;2023-08-06T07:57:45;28.30;93.20
40670;DHT22;26355;45.528;9.234;2023-08-06T08:00:11;28.30;93.00
40670;DHT22;26355;45.528;9.234;2023-08-06T08:02:36;28.30;92.90
40670;DHT22;26355;45.528;9.234;2023-08-06T08:05:02;28.30;92.90
40670;DHT22;26355;45.528;9.234;2023-08-06T08:07:28;28.30;93.20
40670;DHT22;26355;45.528;9.234;2023-08-06T08:09:56;28.30;92.90
40670;DHT22;26355;45.528;9.234;2023-08-06T08:12:22;28.40;92.90
40670;DHT22;26355;45.528;9.234;2023-08-06T08:14:47;28.50;92.70
40670;DHT22;26355;45.528;9.234;2023-08-06T08:17:13;28.60;92.40
40670;DHT22;26355;45.528;9.234;2023-08-06T08:19:40;28.60;92.40
40670;DHT22;26355;45.528;9.234;2023-08-06T08:22:06;28.70;92.00
40670;DHT22;26355;45.528;9.234;2023-08-06T08:24:31;28.60;91.30
40670;DHT22;26355;45.528;9.234;2023-08-06T08:26:57;28.70;91.90
40670;DHT22;26355;45.528;9.234;2023-08-06T08:29:22;28.70;91.30
40670;DHT22;26355;45.528;9.234;2023-08-06T08:31:48;28.80;91.30
40670;DHT22;26355;45.528;9.234;2023-08-06T08:34:15;28.80;90.90
40670;DHT22;26355;45.528;9.234;2023-08-06T08:36:41;28.80;90.20
40670;DHT22;26355;45.528;9.234;2023-08-06T08:39:07;28.90;91.20
40670;DHT22;26355;45.528;9.234;2023-08-06T08:41:33;28.90;90.70
40670;DHT22;26355;45.528;9.234;2023-08-06T08:43:59;28.90;89.50
40670;DHT22;26355;45.528;9.234;2023-08-06T08:46:29;28.90;90.20
40670;DHT22;26355;45.528;9.234;2023-08-06T08:48:57;28.90;90.00
40670;DHT22;26355;45.528;9.234;2023-08-06T08:51:25;29.00;90.40
40670;DHT22;26355;45.528;9.234;2023-08-06T08:53:53;29.10;90.30
40670;DHT22;26355;45.528;9.234;2023-08-06T08:56:21;29.00;87.80
40670;DHT22;26355;45.528;9.234;2023-08-06T08:58:47;28.90;89.30
40670;DHT22;26355;45.528;9.234;2023-08-06T09:01:15;29.00;88.70
40670;DHT22;26355;45.528;9.234;2023-08-06T09:03:41;29.10;88.50
40670;DHT22;26355;45.528;9.234;2023-08-06T09:06:07;29.20;88.60
40670;DHT22;26355;45.528;9.234;2023-08-06T09:08:43;29.20;87.50
40670;DHT22;26355;45.528;9.234;2023-08-06T09:11:09;29.40;86.90
40670;DHT22;26355;45.528;9.234;2023-08-06T09:13:38;29.50;86.70
40670;DHT22;26355;45.528;9.234;2023-08-06T09:16:04;29.50;85.80
40670;DHT22;26355;45.528;9.234;2023-08-06T09:18:30;29.60;84.70
40670;DHT22;26355;45.528;9.234;2023-08-06T09:20:57;29.70;84.10
40670;DHT22;26355;45.528;9.234;2023-08-06T09:23:30;29.80;83.30
40670;DHT22;26355;45.528;9.234;2023-08-06T09:25:57;29.70;77.00
40670;DHT22;26355;45.528;9.234;2023-08-06T09:28:23;29.80;76.40
40670;DHT22;26355;45.528;9.234;2023-08-06T09:30:52;29.70;75.00
40670;DHT22;26355;45.528;9.234;2023-08-06T09:33:22;29.80;75.20
40670;DHT22;26355;45.528;9.234;2023-08-06T09:35:48;29.90;73.30
40670;DHT22;26355;45.528;9.234;2023-08-06T09:38:13;30.00;73.20
40670;DHT22;26355;45.528;9.234;2023-08-06T09:40:40;30.10;72.90
40670;DHT22;26355;45.528;9.234;2023-08-06T09:43:06;30.10;72.50
40670;DHT22;26355;45.528;9.234;2023-08-06T09:45:37;30.20;72.40
40670;DHT22;26355;45.528;9.234;2023-08-06T09:48:08;30.10;70.50
40670;DHT22;26355;45.528;9.234;2023-08-06T09:50:35;30.10;71.00
40670;DHT22;26355;45.528;9.234;2023-08-06T09:53:02;30.10;69.20
40670;DHT22;26355;45.528;9.234;2023-08-06T09:55:28;30.20;68.60
40670;DHT22;26355;45.528;9.234;2023-08-06T09:57:54;30.30;68.00
40670;DHT22;26355;45.528;9.234;2023-08-06T10:00:21;30.30;67.10
40670;DHT22;26355;45.528;9.234;2023-08-06T10:02:47;30.40;67.50
40670;DHT22;26355;45.528;9.234;2023-08-06T10:05:14;30.40;67.50
40670;DHT22;26355;45.528;9.234;2023-08-06T10:07:43;30.50;67.00
40670;DHT22;26355;45.528;9.234;2023-08-06T10:10:09;30.60;66.60
40670;DHT22;26355;45.528;9.234;2023-08-06T10:12:39;30.70;66.70
40670;DHT22;26355;45.528;9.234;2023-08-06T10:15:11;30.70;65.20
40670;DHT22;26355;45.528;9.234;2023-08-06T10:17:39;30.70;65.90
40670;DHT22;26355;45.528;9.234;2023-08-06T10:20:07;30.80;66.10
40670;DHT22;26355;45.528;9.234;2023-08-06T10:22:34;30.90;66.20
40670;DHT22;26355;45.528;9.234;2023-08-06T10:25:00;31.00;65.60
40670;DHT22;26355;45.528;9.234;2023-08-06T10:27:41;31.00;66.20
40670;DHT22;26355;45.528;9.234;2023-08-06T10:30:31;31.10;65.50
40670;DHT22;26355;45.528;9.234;2023-08-06T10:33:00;31.10;64.60
40670;DHT22;26355;45.528;9.234;2023-08-06T10:35:43;31.20;65.70
40670;DHT22;26355;45.528;9.234;2023-08-06T10:38:16;31.20;64.60
40670;DHT22;26355;45.528;9.234;2023-08-06T10:45:52;31.30;66.40
40670;DHT22;26355;45.528;9.234;2023-08-06T10:48:33;31.30;65.90
40670;DHT22;26355;45.528;9.234;2023-08-06T10:51:00;31.30;64.80
40670;DHT22;26355;45.528;9.234;2023-08-06T10:53:27;31.40;65.80
40670;DHT22;26355;45.528;9.234;2023-08-06T10:55:52;31.40;65.30
40670;DHT22;26355;45.528;9.234;2023-08-06T10:58:18;31.50;65.10
40670;DHT22;26355;45.528;9.234;2023-08-06T11:01:05;31.60;65.40
40670;DHT22;26355;45.528;9.234;2023-08-06T11:04:37;31.60;63.80
40670;DHT22;26355;45.528;9.234;2023-08-06T11:08:04;31.40;63.60
40670;DHT22;26355;45.528;9.234;2023-08-06T11:10:44;31.30;63.40
40670;DHT22;26355;45.528;9.234;2023-08-06T11:14:19;31.30;65.50
40670;DHT22;26355;45.528;9.234;2023-08-06T11:17:54;31.30;64.40
40670;DHT22;26355;45.528;9.234;2023-08-06T11:24:37;31.30;64.10
40670;DHT22;26355;45.528;9.234;2023-08-06T11:28:03;31.20;62.70
40670;DHT22;26355;45.528;9.234;2023-08-06T11:31:41;31.30;64.90
40670;DHT22;26355;45.528;9.234;2023-08-06T11:35:34;31.30;65.70
40670;DHT22;26355;45.528;9.234;2023-08-06T11:49:59;31.60;62.70
40670;DHT22;26355;45.528;9.234;2023-08-06T12:00:42;31.90;64.10
40670;DHT22;26355;45.528;9.234;2023-08-06T12:08:05;31.90;67.50
40670;DHT22;26355;45.528;9.234;2023-08-06T12:11:38;31.90;62.70
40670;DHT22;26355;45.528;9.234;2023-08-06T12:14:47;31.80;62.60
40670;DHT22;26355;45.528;9.234;2023-08-06T12:18:08;31.80;64.00
40670;DHT22;26355;45.528;9.234;2023-08-06T12:28:25;31.70;66.30
40670;DHT22;26355;45.528;9.234;2023-08-06T12:31:45;31.80;64.00
40670;DHT22;26355;45.528;9.234;2023-08-06T12:42:53;31.90;59.90
40670;DHT22;26355;45.528;9.234;2023-08-06T12:45:25;31.90;57.20
40670;DHT22;26355;45.528;9.234;2023-08-06T12:47:53;31.90;57.50
40670;DHT22;26355;45.528;9.234;2023-08-06T12:50:22;31.90;58.10
40670;DHT22;26355;45.528;9.234;2023-08-06T12:52:47;31.90;56.90
40670;DHT22;26355;45.528;9.234;2023-08-06T12:55:13;32.00;55.70
40670;DHT22;26355;45.528;9.234;2023-08-06T12:57:46;31.90;55.20
40670;DHT22;26355;45.528;9.234;2023-08-06T13:00:12;31.90;54.90
40670;DHT22;26355;45.528;9.234;2023-08-06T13:02:38;31.90;53.10
40670;DHT22;26355;45.528;9.234;2023-08-06T13:05:03;31.90;53.10
40670;DHT22;26355;45.528;9.234;2023-08-06T13:07:31;31.90;52.90
40670;DHT22;26355;45.528;9.234;2023-08-06T13:09:57;32.00;53.00
40670;DHT22;26355;45.528;9.234;2023-08-06T13:12:22;32.10;53.20
40670;DHT22;26355;45.528;9.234;2023-08-06T13:14:49;32.00;53.00
40670;DHT22;26355;45.528;9.234;2023-08-06T13:17:15;32.00;53.00
40670;DHT22;26355;45.528;9.234;2023-08-06T13:19:45;32.10;53.40
40670;DHT22;26355;45.528;9.234;2023-08-06T13:22:11;32.10;53.50
40670;DHT22;26355;45.528;9.234;2023-08-06T13:24:36;32.10;53.10
40670;DHT22;26355;45.528;9.234;2023-08-06T13:27:02;32.10;53.00
40670;DHT22;26355;45.528;9.234;2023-08-06T13:29:28;32.10;53.30
40670;DHT22;26355;45.528;9.234;2023-08-06T13:31:54;32.10;53.60
40670;DHT22;26355;45.528;9.234;2023-08-06T13:34:20;32.20;53.50
40670;DHT22;26355;45.528;9.234;2023-08-06T13:36:45;32.10;53.30
40670;DHT22;26355;45.528;9.234;2023-08-06T13:39:11;32.10;52.70
40670;DHT22;26355;45.528;9.234;2023-08-06T13:41:38;32.10;52.10
40670;DHT22;26355;45.528;9.234;2023-08-06T13:44:04;32.10;52.00
40670;DHT22;26355;45.528;9.234;2023-08-06T13:46:30;32.10;51.80
40670;DHT22;26355;45.528;9.234;2023-08-06T13:48:56;32.10;52.20
40670;DHT22;26355;45.528;9.234;2023-08-06T13:51:22;32.20;52.80
40670;DHT22;26355;45.528;9.234;2023-08-06T13:54:07;32.20;53.00
40670;DHT22;26355;45.528;9.234;2023-08-06T13:56:34;32.30;52.20
40670;DHT22;26355;45.528;9.234;2023-08-06T13:59:00;32.20;52.40
40670;DHT22;26355;45.528;9.234;2023-08-06T14:01:26;32.20;51.30
40670;DHT22;26355;45.528;9.234;2023-08-06T14:03:52;32.10;51.30
40670;DHT22;26355;45.528;9.234;2023-08-06T14:06:18;32.10;50.90
40670;DHT22;26355;45.528;9.234;2023-08-06T14:08:44;32.10;50.70
40670;DHT22;26355;45.528;9.234;2023-08-06T14:11:10;32.10;51.10
40670;DHT22;26355;45.528;9.234;2023-08-06T14:13:36;32.10;51.00
40670;DHT22;26355;45.528;9.234;2023-08-06T14:16:01;32.00;51.20
40670;DHT22;26355;45.528;9.234;2023-08-06T14:18:27;32.00;51.90
40670;DHT22;26355;45.528;9.234;2023-08-06T14:20:53;32.10;52.10
40670;DHT22;26355;45.528;9.234;2023-08-06T14:23:18;32.00;52.20
40670;DHT22;26355;45.528;9.234;2023-08-06T14:25:44;32.00;52.90
40670;DHT22;26355;45.528;9.234;2023-08-06T14:28:10;32.00;53.30
40670;DHT22;26355;45.528;9.234;2023-08-06T14:30:36;31.90;52.20
40670;DHT22;26355;45.528;9.234;2023-08-06T14:33:02;31.80;52.20
40670;DHT22;26355;45.528;9.234;2023-08-06T14:35:31;31.70;52.50
40670;DHT22;26355;45.528;9.234;2023-08-06T14:37:57;31.70;52.60
40670;DHT22;26355;45.528;9.234;2023-08-06T14:40:22;31.60;52.40
40670;DHT22;26355;45.528;9.234;2023-08-06T14:42:48;31.60;52.40
40670;DHT22;26355;45.528;9.234;2023-08-06T14:45:14;31.60;52.20
40670;DHT22;26355;45.528;9.234;2023-08-06T14:47:39;31.50;52.20
40670;DHT22;26355;45.528;9.234;2023-08-06T14:50:05;31.40;51.90
40670;DHT22;26355;45.528;9.234;2023-08-06T14:52:31;31.40;52.30
40670;DHT22;26355;45.528;9.234;2023-08-06T14:54:56;31.40;52.40
40670;DHT22;26355;45.528;9.234;2023-08-06T14:57:22;31.40;52.60
40670;DHT22;26355;45.528;9.234;2023-08-06T14:59:53;31.20;52.90
40670;DHT22;26355;45.528;9.234;2023-08-06T15:02:19;31.30;53.40
40670;DHT22;26355;45.528;9.234;2023-08-06T15:04:44;31.30;53.70
40670;DHT22;26355;45.528;9.234;2023-08-06T15:07:10;31.30;53.70
40670;DHT22;26355;45.528;9.234;2023-08-06T15:09:35;31.30;54.00
40670;DHT22;26355;45.528;9.234;2023-08-06T15:12:01;31.40;54.10
40670;DHT22;26355;45.528;9.234;2023-08-06T15:14:26;31.30;54.00
40670;DHT22;26355;45.528;9.234;2023-08-06T15:16:52;31.20;53.70
40670;DHT22;26355;45.528;9.234;2023-08-06T15:19:18;31.10;53.70
40670;DHT22;26355;45.528;9.234;2023-08-06T15:21:43;31.10;54.10
40670;DHT22;26355;45.528;9.234;2023-08-06T15:24:09;31.10;54.40
40670;DHT22;26355;45.528;9.234;2023-08-06T15:26:35;31.10;54.60
40670;DHT22;26355;45.528;9.234;2023-08-06T15:29:00;31.10;54.20
40670;DHT22;26355;45.528;9.234;2023-08-06T15:31:38;31.10;53.80
40670;DHT22;26355;45.528;9.234;2023-08-06T15:34:05;30.90;53.30
40670;DHT22;26355;45.528;9.234;2023-08-06T15:36:32;31.00;54.20
40670;DHT22;26355;45.528;9.234;2023-08-06T15:38:59;31.00;54.20
40670;DHT22;26355;45.528;9.234;2023-08-06T15:41:24;31.00;54.20
40670;DHT22;26355;45.528;9.234;2023-08-06T15:43:50;31.00;54.30
40670;DHT22;26355;45.528;9.234;2023-08-06T15:46:16;30.90;54.90
40670;DHT22;26355;45.528;9.234;2023-08-06T15:48:41;30.90;54.20
40670;DHT22;26355;45.528;9.234;2023-08-06T15:51:07;30.90;54.30
40670;DHT22;26355;45.528;9.234;2023-08-06T15:53:33;30.90;54.00
40670;DHT22;26355;45.528;9.234;2023-08-06T15:55:59;30.80;53.90
40670;DHT22;26355;45.528;9.234;2023-08-06T15:58:24;30.80;54.10
40670;DHT22;26355;45.528;9.234;2023-08-06T16:00:50;30.80;53.70
40670;DHT22;26355;45.528;9.234;2023-08-06T16:03:16;30.80;53.80
40670;DHT22;26355;45.528;9.234;2023-08-06T16:05:41;30.80;54.10
40670;DHT22;26355;45.528;9.234;2023-08-06T16:08:08;30.80;54.80
40670;DHT22;26355;45.528;9.234;2023-08-06T16:10:34;30.70;54.20
40670;DHT22;26355;45.528;9.234;2023-08-06T16:13:00;30.70;54.30
40670;DHT22;26355;45.528;9.234;2023-08-06T16:15:25;30.70;53.60
40670;DHT22;26355;45.528;9.234;2023-08-06T16:17:51;30.60;53.50
40670;DHT22;26355;45.528;9.234;2023-08-06T16:20:16;30.60;53.20
40670;DHT22;26355;45.528;9.234;2023-08-06T16:22:42;30.60;53.00
40670;DHT22;26355;45.528;9.234;2023-08-06T16:25:09;30.60;53.30
40670;DHT22;26355;45.528;9.234;2023-08-06T16:27:37;30.60;53.10
40670;DHT22;26355;45.528;9.234;2023-08-06T16:30:03;30.60;53.10
40670;DHT22;26355;45.528;9.234;2023-08-06T16:32:28;30.50;53.30
40670;DHT22;26355;45.528;9.234;2023-08-06T16:34:54;30.50;53.30
40670;DHT22;26355;45.528;9.234;2023-08-06T16:37:22;30.50;53.30
40670;DHT22;26355;45.528;9.234;2023-08-06T16:39:49;30.50;53.60
40670;DHT22;26355;45.528;9.234;2023-08-06T16:42:14;30.50;54.00
40670;DHT22;26355;45.528;9.234;2023-08-06T16:44:40;30.50;53.50
40670;DHT22;26355;45.528;9.234;2023-08-06T16:47:06;30.40;53.00